sensor_id;sensor_type;location;lat;lon;timestamp;pressure;altitude;pressure_sealevel;temperature;humidity
18819;BME280;9537;45.594;9.294;2024-02-23T00:00:21;98114.69;;;9.72;100.00
18819;BME280;9537;45.594;9.294;2024-02-23T00:01:24;98112.06;;;9.72;100.00
18819;BME280;9537;45.594;9.294;2024-02-23T00:02:25;98096.03;;;9.74;100.00
18819;BME280;9537;45.594;9.294;2024-02-23T00:03:26;98098.47;;;9.75;100.00
18819;BME280;9537;45.594;9.294;2024-02-23T00:04:27;98096.84;;;9.74;100.00
18819;BME280;9537;45.594;9.294;2024-02-23T00:05:29;98105.78;;;9.73;100.00
18819;BME280;9537;45.594;9.294;2024-02-23T00:06:29;98103.34;;;9.72;100.00
18819;BME280;9537;45.594;9.294;2024-02-23T00:07:31;98102.31;;;9.73;100.00
18819;BME280;9537;45.594;9.294;2024-02-23T00:08:32;98096.25;;;9.72;100.00
18819;BME280;9537;45.594;9.294;2024-02-23T00:09:34;98094.00;;;9.76;100.00
18819;BME280;9537;45.594;9.294;2024-02-23T00:10:35;98096.44;;;9.77;100.00
18819;BME280;9537;45.594;9.294;2024-02-23T00:11:39;98089.56;;;9.76;100.00
18819;BME280;9537;45.594;9.294;2024-02-23T00:12:44;98086.91;;;9.76;100.00
18819;BME280;9537;45.594;9.294;2024-02-23T00:13:45;98079.19;;;9.75;100.00
18819;BME280;9537;45.594;9.294;2024-02-23T00:14:47;98071.50;;;9.73;100.00
18819;BME280;9537;45.594;9.294;2024-02-23T00:15:47;98079.84;;;9.70;100.00
18819;BME280;9537;45.594;9.294;2024-02-23T00:16:50;98086.72;;;9.71;100.00
18819;BME280;9537;45.594;9.294;2024-02-23T00:17:51;98089.34;;;9.71;100.00
18819;BME280;9537;45.594;9.294;2024-02-23T00:18:53;98078.19;;;9.69;100.00
18819;BME280;9537;45.594;9.294;2024-02-23T00:19:53;98063.19;;;9.69;100.00
18819;BME280;9537;45.594;9.294;2024-02-23T00:20:55;98071.50;;;9.66;100.00
18819;BME280;9537;45.594;9.294;2024-02-23T00:21:56;98059.75;;;9.62;100.00
18819;BME280;9537;45.594;9.294;2024-02-23T00:22:59;98054.50;;;9.62;100.00
18819;BME280;9537;45.594;9.294;2024-02-23T00:24:00;98061.59;;;9.62;100.00
18819;BME280;9537;45.594;9.294;2024-02-23T00:25:01;98058.34;;;9.60;100.00
18819;BME280;9537;45.594;9.294;2024-02-23T00:26:03;98055.72;;;9.60;100.00
18819;BME280;9537;45.594;9.294;2024-02-23T00:27:04;98059.38;;;9.59;100.00
18819;BME280;9537;45.594;9.294;2024-02-23T00:28:06;98071.53;;;9.60;100.00
18819;BME280;9537;45.594;9.294;2024-02-23T00:29:06;98069.31;;;9.57;100.00
18819;BME280;9537;45.594;9.294;2024-02-23T00:30:09;98062.19;;;9.57;100.00
18819;BME280;9537;45.594;9.294;2024-02-23T00:31:10;98068.28;;;9.58;100.00
18819;BME280;9537;45.594;9.294;2024-02-23T00:32:13;98071.94;;;9.57;100.00
18819;BME280;9537;45.594;9.294;2024-02-23T00:33:14;98073.75;;;9.56;100.00
18819;BME280;9537;45.594;9.294;2024-02-23T00:34:15;98068.06;;;9.53;100.00
18819;BME280;9537;45.594;9.294;2024-02-23T00:35:17;98064.44;;;9.54;100.00
18819;BME280;9537;45.594;9.294;2024-02-23T00:36:19;98061.59;;;9.55;100.00
18819;BME280;9537;45.594;9.294;2024-02-23T00:37:20;98065.84;;;9.56;100.00
18819;BME280;9537;45.594;9.294;2024-02-23T00:38:21;98053.69;;;9.55;100.00
18819;BME280;9537;45.594;9.294;2024-02-23T00:39:22;98054.09;;;9.52;100.00
18819;BME280;9537;45.594;9.294;2024-02-23T00:40:24;98052.88;;;9.55;100.00
18819;BME280;9537;45.594;9.294;2024-02-23T00:41:25;98057.16;;;9.56;100.00
18819;BME280;9537;45.594;9.294;2024-02-23T00:42:27;98050.47;;;9.53;100.00
18819;BME280;9537;45.594;9.294;2024-02-23T00:43:28;98050.47;;;9.53;100.00
18819;BME280;9537;45.594;9.294;2024-02-23T00:44:30;98048.81;;;9.52;100.00
18819;BME280;9537;45.594;9.294;2024-02-23T00:45:30;98050.66;;;9.52;100.00
18819;BME280;9537;45.594;9.294;2024-02-23T00:46:32;98038.88;;;9.54;100.00
18819;BME280;9537;45.594;9.294;2024-02-23T00:47:34;98040.50;;;9.55;100.00
18819;BME280;9537;45.594;9.294;2024-02-23T00:48:37;98033.81;;;9.53;99.76
18819;BME280;9537;45.594;9.294;2024-02-23T00:49:38;98033.81;;;9.53;99.96
18819;BME280;9537;45.594;9.294;2024-02-23T00:50:39;98035.06;;;9.50;99.67
18819;BME280;9537;45.594;9.294;2024-02-23T00:51:40;98034.22;;;9.50;99.71
18819;BME280;9537;45.594;9.294;2024-02-23T00:52:41;98023.50;;;9.51;99.65
18819;BME280;9537;45.594;9.294;2024-02-23T00:53:42;98026.13;;;9.51;99.67
18819;BME280;9537;45.594;9.294;2024-02-23T00:54:43;98031.00;;;9.47;99.56
18819;BME280;9537;45.594;9.294;2024-02-23T00:55:45;98022.25;;;9.47;99.45
18819;BME280;9537;45.594;9.294;2024-02-23T00:56:46;98021.47;;;9.46;99.55
18819;BME280;9537;45.594;9.294;2024-02-23T00:57:47;98019.84;;;9.45;99.42
18819;BME280;9537;45.594;9.294;2024-02-23T00:58:48;98022.66;;;9.44;99.16
18819;BME280;9537;45.594;9.294;2024-02-23T00:59:50;98014.38;;;9.40;99.50
18819;BME280;9537;45.594;9.294;2024-02-23T01:00:51;98011.31;;;9.43;99.38
18819;BME280;9537;45.594;9.294;2024-02-23T01:01:54;98000.22;;;9.41;99.30
18819;BME280;9537;45.594;9.294;2024-02-23T01:02:56;98012.53;;;9.41;99.31
18819;BME280;9537;45.594;9.294;2024-02-23T01:04:00;98019.03;;;9.45;99.17
18819;BME280;9537;45.594;9.294;2024-02-23T01:05:00;98010.09;;;9.46;98.94
18819;BME280;9537;45.594;9.294;2024-02-23T01:06:03;98013.56;;;9.46;99.06
18819;BME280;9537;45.594;9.294;2024-02-23T01:07:03;98008.50;;;9.45;98.84
18819;BME280;9537;45.594;9.294;2024-02-23T01:08:06;98007.28;;;9.41;98.67
18819;BME280;9537;45.594;9.294;2024-02-23T01:09:07;98010.53;;;9.36;98.70
18819;BME280;9537;45.594;9.294;2024-02-23T01:10:07;98001.22;;;9.34;98.83
18819;BME280;9537;45.594;9.294;2024-02-23T01:11:09;98006.28;;;9.35;99.36
18819;BME280;9537;45.594;9.294;2024-02-23T01:12:10;98002.84;;;9.35;99.30
18819;BME280;9537;45.594;9.294;2024-02-23T01:13:11;97993.09;;;9.35;99.21
18819;BME280;9537;45.594;9.294;2024-02-23T01:14:13;97983.59;;;9.34;98.99
18819;BME280;9537;45.594;9.294;2024-02-23T01:15:14;97985.81;;;9.37;98.70
18819;BME280;9537;45.594;9.294;2024-02-23T01:16:15;97988.25;;;9.39;98.93
18819;BME280;9537;45.594;9.294;2024-02-23T01:17:16;97985.00;;;9.37;98.48
18819;BME280;9537;45.594;9.294;2024-02-23T01:18:19;97975.25;;;9.37;98.82
18819;BME280;9537;45.594;9.294;2024-02-23T01:19:20;97976.47;;;9.35;98.79
18819;BME280;9537;45.594;9.294;2024-02-23T01:20:22;97980.75;;;9.36;99.08
18819;BME280;9537;45.594;9.294;2024-02-23T01:21:23;97974.06;;;9.33;98.80
18819;BME280;9537;45.594;9.294;2024-02-23T01:22:24;97963.31;;;9.35;99.27
18819;BME280;9537;45.594;9.294;2024-02-23T01:23:25;97973.84;;;9.35;98.79
18819;BME280;9537;45.594;9.294;2024-02-23T01:24:27;97970.00;;;9.37;99.03
18819;BME280;9537;45.594;9.294;2024-02-23T01:25:29;97981.16;;;9.39;98.76
18819;BME280;9537;45.594;9.294;2024-02-23T01:26:31;97974.84;;;9.40;98.60
18819;BME280;9537;45.594;9.294;2024-02-23T01:27:31;97977.09;;;9.37;98.38
18819;BME280;9537;45.594;9.294;2024-02-23T01:28:33;97972.84;;;9.36;98.82
18819;BME280;9537;45.594;9.294;2024-02-23T01:29:34;97970.22;;;9.36;98.66
18819;BME280;9537;45.594;9.294;2024-02-23T01:30:36;97960.91;;;9.33;98.63
18819;BME280;9537;45.594;9.294;2024-02-23T01:31:36;97954.59;;;9.34;98.61
18819;BME280;9537;45.594;9.294;2024-02-23T01:32:38;97961.06;;;9.38;98.49
18819;BME280;9537;45.594;9.294;2024-02-23T01:33:40;97963.69;;;9.38;98.18
18819;BME280;9537;45.594;9.294;2024-02-23T01:34:42;97955.22;;;9.36;98.44
18819;BME280;9537;45.594;9.294;2024-02-23T01:35:43;97953.16;;;9.38;98.31
18819;BME280;9537;45.594;9.294;2024-02-23T01:36:45;97951.56;;;9.37;97.89
18819;BME280;9537;45.594;9.294;2024-02-23T01:37:45;97951.56;;;9.37;97.73
18819;BME280;9537;45.594;9.294;2024-02-23T01:38:47;97951.97;;;9.34;97.81
18819;BME280;9537;45.594;9.294;2024-02-23T01:39:48;97940.00;;;9.32;97.83
18819;BME280;9537;45.594;9.294;2024-02-23T01:40:49;97942.66;;;9.25;97.76
18819;BME280;9537;45.594;9.294;2024-02-23T01:41:50;97945.50;;;9.23;98.38
18819;BME280;9537;45.594;9.294;2024-02-23T01:43:01;97947.94;;;9.25;98.21
18819;BME280;9537;45.594;9.294;2024-02-23T01:44:02;97944.28;;;9.26;98.77
18819;BME280;9537;45.594;9.294;2024-02-23T01:45:04;97940.84;;;9.25;98.90
18819;BME280;9537;45.594;9.294;2024-02-23T01:46:05;97942.25;;;9.28;98.42
18819;BME280;9537;45.594;9.294;2024-02-23T01:47:06;97945.09;;;9.27;98.47
18819;BME280;9537;45.594;9.294;2024-02-23T01:48:08;97933.56;;;9.28;98.67
18819;BME280;9537;45.594;9.294;2024-02-23T01:49:10;97926.66;;;9.27;98.44
18819;BME280;9537;45.594;9.294;2024-02-23T01:50:11;97929.09;;;9.28;98.28
18819;BME280;9537;45.594;9.294;2024-02-23T01:51:13;97925.84;;;9.26;98.29
18819;BME280;9537;45.594;9.294;2024-02-23T01:52:15;97940.03;;;9.25;98.10
18819;BME280;9537;45.594;9.294;2024-02-23T01:53:18;97928.69;;;9.24;98.15
18819;BME280;9537;45.594;9.294;2024-02-23T01:54:19;97924.41;;;9.23;98.50
18819;BME280;9537;45.594;9.294;2024-02-23T01:55:22;97926.25;;;9.23;98.56
18819;BME280;9537;45.594;9.294;2024-02-23T01:56:23;97918.75;;;9.20;98.31
18819;BME280;9537;45.594;9.294;2024-02-23T01:57:25;97907.81;;;9.23;98.66
18819;BME280;9537;45.594;9.294;2024-02-23T01:58:27;97912.88;;;9.24;98.24
18819;BME280;9537;45.594;9.294;2024-02-23T01:59:29;97907.63;;;9.24;98.35
18819;BME280;9537;45.594;9.294;2024-02-23T02:00:30;97900.72;;;9.23;98.43
18819;BME280;9537;45.594;9.294;2024-02-23T02:01:31;97903.56;;;9.22;98.74
18819;BME280;9537;45.594;9.294;2024-02-23T02:02:33;97898.50;;;9.20;98.88
18819;BME280;9537;45.594;9.294;2024-02-23T02:03:35;97900.94;;;9.22;99.18
18819;BME280;9537;45.594;9.294;2024-02-23T02:04:39;97897.09;;;9.24;98.81
18819;BME280;9537;45.594;9.294;2024-02-23T02:05:40;97894.03;;;9.21;98.76
18819;BME280;9537;45.594;9.294;2024-02-23T02:06:44;97894.88;;;9.21;98.89
18819;BME280;9537;45.594;9.294;2024-02-23T02:07:47;97893.44;;;9.19;98.85
18819;BME280;9537;45.594;9.294;2024-02-23T02:08:51;97902.16;;;9.19;99.07
18819;BME280;9537;45.594;9.294;2024-02-23T02:09:51;97890.81;;;9.19;99.03
18819;BME280;9537;45.594;9.294;2024-02-23T02:10:53;97895.88;;;9.20;99.00
18819;BME280;9537;45.594;9.294;2024-02-23T02:11:54;97894.88;;;9.21;99.20
18819;BME280;9537;45.594;9.294;2024-02-23T02:13:02;97895.66;;;9.22;98.99
18819;BME280;9537;45.594;9.294;2024-02-23T02:14:02;97889.38;;;9.23;98.98
18819;BME280;9537;45.594;9.294;2024-02-23T02:15:05;97896.25;;;9.24;98.86
18819;BME280;9537;45.594;9.294;2024-02-23T02:16:06;97897.28;;;9.23;99.04
18819;BME280;9537;45.594;9.294;2024-02-23T02:17:08;97894.63;;;9.23;98.82
18819;BME280;9537;45.594;9.294;2024-02-23T02:18:09;97894.63;;;9.23;98.90
18819;BME280;9537;45.594;9.294;2024-02-23T02:19:11;97892.00;;;9.23;99.43
18819;BME280;9537;45.594;9.294;2024-02-23T02:20:13;97884.91;;;9.23;99.30
18819;BME280;9537;45.594;9.294;2024-02-23T02:21:14;97877.81;;;9.24;99.20
18819;BME280;9537;45.594;9.294;2024-02-23T02:22:16;97878.84;;;9.23;99.55
18819;BME280;9537;45.594;9.294;2024-02-23T02:23:17;97882.50;;;9.22;99.83
18819;BME280;9537;45.594;9.294;2024-02-23T02:24:17;97872.53;;;9.24;99.72
18819;BME280;9537;45.594;9.294;2024-02-23T02:25:21;97875.41;;;9.22;99.29
18819;BME280;9537;45.594;9.294;2024-02-23T02:26:22;97877.22;;;9.22;99.31
18819;BME280;9537;45.594;9.294;2024-02-23T02:27:23;97874.59;;;9.22;99.68
18819;BME280;9537;45.594;9.294;2024-02-23T02:28:25;97866.69;;;9.22;99.83
18819;BME280;9537;45.594;9.294;2024-02-23T02:29:27;97858.78;;;9.22;99.84
18819;BME280;9537;45.594;9.294;2024-02-23T02:30:28;97862.22;;;9.22;99.75
18819;BME280;9537;45.594;9.294;2024-02-23T02:31:29;97856.53;;;9.25;99.84
18819;BME280;9537;45.594;9.294;2024-02-23T02:32:31;97855.75;;;9.25;99.62
18819;BME280;9537;45.594;9.294;2024-02-23T02:33:32;97859.97;;;9.26;99.46
18819;BME280;9537;45.594;9.294;2024-02-23T02:34:33;97859.97;;;9.26;99.58
18819;BME280;9537;45.594;9.294;2024-02-23T02:35:36;97863.63;;;9.25;99.61
18819;BME280;9537;45.594;9.294;2024-02-23T02:36:37;97860.19;;;9.24;99.79
18819;BME280;9537;45.594;9.294;2024-02-23T02:37:39;97859.38;;;9.24;99.74
18819;BME280;9537;45.594;9.294;2024-02-23T02:38:39;97853.09;;;9.25;99.86
18819;BME280;9537;45.594;9.294;2024-02-23T02:39:41;97848.84;;;9.24;100.00
18819;BME280;9537;45.594;9.294;2024-02-23T02:40:42;97852.06;;;9.26;100.00
18819;BME280;9537;45.594;9.294;2024-02-23T02:41:44;97854.72;;;9.26;100.00
18819;BME280;9537;45.594;9.294;2024-02-23T02:42:44;97848.84;;;9.24;100.00
18819;BME280;9537;45.594;9.294;2024-02-23T02:43:46;97848.84;;;9.24;100.00
18819;BME280;9537;45.594;9.294;2024-02-23T02:44:47;97846.19;;;9.24;100.00
18819;BME280;9537;45.594;9.294;2024-02-23T02:45:49;97844.59;;;9.23;100.00
18819;BME280;9537;45.594;9.294;2024-02-23T02:46:49;97848.84;;;9.24;100.00
18819;BME280;9537;45.594;9.294;2024-02-23T02:47:51;97848.84;;;9.24;100.00
18819;BME280;9537;45.594;9.294;2024-02-23T02:48:52;97849.44;;;9.26;100.00
18819;BME280;9537;45.594;9.294;2024-02-23T02:49:53;97846.81;;;9.26;100.00
18819;BME280;9537;45.594;9.294;2024-02-23T02:50:55;97847.63;;;9.27;100.00
18819;BME280;9537;45.594;9.294;2024-02-23T02:51:57;97836.28;;;9.26;100.00
18819;BME280;9537;45.594;9.294;2024-02-23T02:52:58;97838.72;;;9.28;100.00
18819;BME280;9537;45.594;9.294;2024-02-23T02:54:00;97835.84;;;9.29;100.00
18819;BME280;9537;45.594;9.294;2024-02-23T02:55:00;97835.06;;;9.29;100.00
18819;BME280;9537;45.594;9.294;2024-02-23T02:56:05;97835.44;;;9.32;100.00
18819;BME280;9537;45.594;9.294;2024-02-23T02:57:06;97844.75;;;9.35;100.00
18819;BME280;9537;45.594;9.294;2024-02-23T02:58:08;97834.44;;;9.33;100.00
18819;BME280;9537;45.594;9.294;2024-02-23T02:59:08;97833.81;;;9.31;100.00
18819;BME280;9537;45.594;9.294;2024-02-23T03:00:11;97836.22;;;9.33;100.00
18819;BME280;9537;45.594;9.294;2024-02-23T03:01:12;97832.78;;;9.32;100.00
18819;BME280;9537;45.594;9.294;2024-02-23T03:02:14;97830.97;;;9.33;100.00
18819;BME280;9537;45.594;9.294;2024-02-23T03:03:14;97825.91;;;9.31;100.00
18819;BME280;9537;45.594;9.294;2024-02-23T03:04:16;97823.47;;;9.30;100.00
18819;BME280;9537;45.594;9.294;2024-02-23T03:05:17;97822.69;;;9.29;100.00
18819;BME280;9537;45.594;9.294;2024-02-23T03:06:20;97817.22;;;9.31;100.00
18819;BME280;9537;45.594;9.294;2024-02-23T03:07:21;97816.19;;;9.32;100.00
18819;BME280;9537;45.594;9.294;2024-02-23T03:08:21;97810.91;;;9.32;100.00
18819;BME280;9537;45.594;9.294;2024-02-23T03:09:23;97811.13;;;9.30;100.00
18819;BME280;9537;45.594;9.294;2024-02-23T03:10:24;97804.25;;;9.29;100.00
18819;BME280;9537;45.594;9.294;2024-02-23T03:11:25;97808.50;;;9.30;100.00
18819;BME280;9537;45.594;9.294;2024-02-23T03:12:26;97804.03;;;9.31;100.00
18819;BME280;9537;45.594;9.294;2024-02-23T03:13:28;97803.41;;;9.35;100.00
18819;BME280;9537;45.594;9.294;2024-02-23T03:14:29;97799.53;;;9.38;100.00
18819;BME280;9537;45.594;9.294;2024-02-23T03:15:31;97802.16;;;9.38;100.00
18819;BME280;9537;45.594;9.294;2024-02-23T03:16:31;97797.13;;;9.36;100.00
18819;BME280;9537;45.594;9.294;2024-02-23T03:17:34;97798.97;;;9.36;100.00
18819;BME280;9537;45.594;9.294;2024-02-23T03:18:36;97802.59;;;9.35;100.00
18819;BME280;9537;45.594;9.294;2024-02-23T03:19:37;97796.53;;;9.34;100.00
18819;BME280;9537;45.594;9.294;2024-02-23T03:20:38;97803.63;;;9.34;100.00
18819;BME280;9537;45.594;9.294;2024-02-23T03:21:41;97799.97;;;9.35;100.00
18819;BME280;9537;45.594;9.294;2024-02-23T03:22:42;97802.59;;;9.35;100.00
18819;BME280;9537;45.594;9.294;2024-02-23T03:23:42;97805.22;;;9.35;100.00
18819;BME280;9537;45.594;9.294;2024-02-23T03:24:45;97798.13;;;9.35;100.00
18819;BME280;9537;45.594;9.294;2024-02-23T03:25:46;97802.59;;;9.35;100.00
18819;BME280;9537;45.594;9.294;2024-02-23T03:26:46;97806.88;;;9.36;100.00
18819;BME280;9537;45.594;9.294;2024-02-23T03:27:48;97810.31;;;9.36;100.00
18819;BME280;9537;45.594;9.294;2024-02-23T03:28:49;97804.81;;;9.38;100.00
18819;BME280;9537;45.594;9.294;2024-02-23T03:29:50;97801.38;;;9.37;100.00
18819;BME280;9537;45.594;9.294;2024-02-23T03:30:52;97799.53;;;9.38;100.00
18819;BME280;9537;45.594;9.294;2024-02-23T03:31:52;97803.19;;;9.37;100.00
18819;BME280;9537;45.594;9.294;2024-02-23T03:32:54;97805.59;;;9.38;100.00
18819;BME280;9537;45.594;9.294;2024-02-23T03:33:55;97801.56;;;9.42;100.00
18819;BME280;9537;45.594;9.294;2024-02-23T03:34:57;97804.38;;;9.41;100.00
18819;BME280;9537;45.594;9.294;2024-02-23T03:35:57;97807.00;;;9.41;100.00
18819;BME280;9537;45.594;9.294;2024-02-23T03:37:01;97795.69;;;9.40;100.00
18819;BME280;9537;45.594;9.294;2024-02-23T03:38:03;97797.50;;;9.40;100.00
18819;BME280;9537;45.594;9.294;2024-02-23T03:39:05;97801.16;;;9.39;100.00
18819;BME280;9537;45.594;9.294;2024-02-23T03:40:07;97804.59;;;9.39;100.00
18819;BME280;9537;45.594;9.294;2024-02-23T03:41:08;97800.53;;;9.43;100.00
18819;BME280;9537;45.594;9.294;2024-02-23T03:42:10;97801.94;;;9.46;100.00
18819;BME280;9537;45.594;9.294;2024-02-23T03:43:10;97804.56;;;9.46;100.00
18819;BME280;9537;45.594;9.294;2024-02-23T03:44:12;97803.56;;;9.40;100.00
18819;BME280;9537;45.594;9.294;2024-02-23T03:45:13;97801.97;;;9.39;100.00
18819;BME280;9537;45.594;9.294;2024-02-23T03:46:15;97797.69;;;9.38;100.00
18819;BME280;9537;45.594;9.294;2024-02-23T03:47:17;97793.25;;;9.39;100.00
18819;BME280;9537;45.594;9.294;2024-02-23T03:48:18;97796.09;;;9.37;100.00
18819;BME280;9537;45.594;9.294;2024-02-23T03:49:19;97796.91;;;9.38;100.00
18819;BME280;9537;45.594;9.294;2024-02-23T03:50:21;97796.09;;;9.37;100.00
18819;BME280;9537;45.594;9.294;2024-02-23T03:51:22;97796.91;;;9.38;100.00
18819;BME280;9537;45.594;9.294;2024-02-23T03:52:26;97789.22;;;9.36;100.00
18819;BME280;9537;45.594;9.294;2024-02-23T03:53:27;97790.81;;;9.37;100.00
18819;BME280;9537;45.594;9.294;2024-02-23T03:54:29;97788.41;;;9.36;100.00
18819;BME280;9537;45.594;9.294;2024-02-23T03:55:29;97795.28;;;9.37;100.00
18819;BME280;9537;45.594;9.294;2024-02-23T03:56:37;97792.06;;;9.35;100.00
18819;BME280;9537;45.594;9.294;2024-02-23T03:57:38;97793.69;;;9.36;100.00
18819;BME280;9537;45.594;9.294;2024-02-23T03:58:40;97791.25;;;9.34;100.00
18819;BME280;9537;45.594;9.294;2024-02-23T03:59:51;97783.34;;;9.34;100.00
18819;BME280;9537;45.594;9.294;2024-02-23T04:00:53;97785.78;;;9.36;100.00
18819;BME280;9537;45.594;9.294;2024-02-23T04:01:54;97777.88;;;9.36;100.00
18819;BME280;9537;45.594;9.294;2024-02-23T04:02:56;97777.66;;;9.37;100.00
18819;BME280;9537;45.594;9.294;2024-02-23T04:03:56;97774.59;;;9.40;100.00
18819;BME280;9537;45.594;9.294;2024-02-23T04:04:57;97779.06;;;9.40;100.00
18819;BME280;9537;45.594;9.294;2024-02-23T04:05:59;97779.88;;;9.40;100.00
18819;BME280;9537;45.594;9.294;2024-02-23T04:07:00;97788.78;;;9.39;100.00
18819;BME280;9537;45.594;9.294;2024-02-23T04:08:03;97793.25;;;9.39;100.00
18819;BME280;9537;45.594;9.294;2024-02-23T04:09:04;97781.88;;;9.38;100.00
18819;BME280;9537;45.594;9.294;2024-02-23T04:10:07;97792.44;;;9.38;100.00
18819;BME280;9537;45.594;9.294;2024-02-23T04:11:08;97792.44;;;9.38;100.00
18819;BME280;9537;45.594;9.294;2024-02-23T04:12:10;97792.44;;;9.38;100.00
18819;BME280;9537;45.594;9.294;2024-02-23T04:13:10;97783.94;;;9.36;100.00
18819;BME280;9537;45.594;9.294;2024-02-23T04:14:14;97774.22;;;9.37;100.00
18819;BME280;9537;45.594;9.294;2024-02-23T04:15:14;97776.63;;;9.38;100.00
18819;BME280;9537;45.594;9.294;2024-02-23T04:16:16;97778.88;;;9.41;100.00
18819;BME280;9537;45.594;9.294;2024-02-23T04:17:17;97774.41;;;9.42;100.00
18819;BME280;9537;45.594;9.294;2024-02-23T04:18:19;97778.63;;;9.43;100.00
18819;BME280;9537;45.594;9.294;2024-02-23T04:19:20;97782.31;;;9.42;100.00
18819;BME280;9537;45.594;9.294;2024-02-23T04:20:21;97783.09;;;9.42;100.00
18819;BME280;9537;45.594;9.294;2024-02-23T04:21:22;97790.41;;;9.40;100.00
18819;BME280;9537;45.594;9.294;2024-02-23T04:22:24;97798.53;;;9.39;100.00
18819;BME280;9537;45.594;9.294;2024-02-23T04:23:26;97802.78;;;9.40;100.00
18819;BME280;9537;45.594;9.294;2024-02-23T04:24:28;97804.59;;;9.39;100.00
18819;BME280;9537;45.594;9.294;2024-02-23T04:25:28;97809.88;;;9.39;100.00
18819;BME280;9537;45.594;9.294;2024-02-23T04:26:30;97806.63;;;9.37;100.00
18819;BME280;9537;45.594;9.294;2024-02-23T04:27:31;97805.00;;;9.43;100.00
18819;BME280;9537;45.594;9.294;2024-02-23T04:28:33;97805.78;;;9.43;100.00
18819;BME280;9537;45.594;9.294;2024-02-23T04:29:34;97805.41;;;9.40;100.00
18819;BME280;9537;45.594;9.294;2024-02-23T04:30:36;97817.78;;;9.39;100.00
18819;BME280;9537;45.594;9.294;2024-02-23T04:31:37;97802.16;;;9.38;100.00
18819;BME280;9537;45.594;9.294;2024-02-23T04:32:39;97807.63;;;9.43;100.00
18819;BME280;9537;45.594;9.294;2024-02-23T04:33:40;97807.81;;;9.48;100.00
18819;BME280;9537;45.594;9.294;2024-02-23T04:34:41;97798.44;;;9.52;100.00
18819;BME280;9537;45.594;9.294;2024-02-23T04:35:44;97798.88;;;9.49;100.00
18819;BME280;9537;45.594;9.294;2024-02-23T04:36:45;97798.06;;;9.48;100.00
18819;BME280;9537;45.594;9.294;2024-02-23T04:37:47;97792.19;;;9.46;100.00
18819;BME280;9537;45.594;9.294;2024-02-23T04:38:51;97795.25;;;9.43;100.00
18819;BME280;9537;45.594;9.294;2024-02-23T04:39:53;97798.91;;;9.42;100.00
18819;BME280;9537;45.594;9.294;2024-02-23T04:40:53;97796.69;;;9.39;100.00
18819;BME280;9537;45.594;9.294;2024-02-23T04:41:55;97788.78;;;9.39;100.00
18819;BME280;9537;45.594;9.294;2024-02-23T04:42:56;97789.78;;;9.38;100.00
18819;BME280;9537;45.594;9.294;2024-02-23T04:43:57;97792.44;;;9.38;100.00
18819;BME280;9537;45.594;9.294;2024-02-23T04:45:00;97799.34;;;9.39;100.00
18819;BME280;9537;45.594;9.294;2024-02-23T04:46:01;97787.16;;;9.38;100.00
18819;BME280;9537;45.594;9.294;2024-02-23T04:47:03;97794.88;;;9.40;100.00
18819;BME280;9537;45.594;9.294;2024-02-23T04:48:04;97791.44;;;9.39;100.00
18819;BME280;9537;45.594;9.294;2024-02-23T04:49:06;97797.50;;;9.40;100.00
18819;BME280;9537;45.594;9.294;2024-02-23T04:50:07;97798.13;;;9.42;100.00
18819;BME280;9537;45.594;9.294;2024-02-23T04:51:09;97797.50;;;9.40;100.00
18819;BME280;9537;45.594;9.294;2024-02-23T04:52:10;97797.50;;;9.40;100.00
18819;BME280;9537;45.594;9.294;2024-02-23T04:53:12;97796.28;;;9.42;100.00
18819;BME280;9537;45.594;9.294;2024-02-23T04:54:14;97792.63;;;9.43;100.00
18819;BME280;9537;45.594;9.294;2024-02-23T04:55:15;97797.88;;;9.43;100.00
18819;BME280;9537;45.594;9.294;2024-02-23T04:56:16;97791.63;;;9.44;100.00
18819;BME280;9537;45.594;9.294;2024-02-23T04:57:18;97788.16;;;9.44;100.00
18819;BME280;9537;45.594;9.294;2024-02-23T04:58:19;97787.34;;;9.43;100.00
18819;BME280;9537;45.594;9.294;2024-02-23T04:59:22;97789.97;;;9.43;100.00
18819;BME280;9537;45.594;9.294;2024-02-23T05:00:23;97788.97;;;9.44;100.00
18819;BME280;9537;45.594;9.294;2024-02-23T05:01:29;97793.66;;;9.42;100.00
18819;BME280;9537;45.594;9.294;2024-02-23T05:02:29;97789.97;;;9.43;100.00
18819;BME280;9537;45.594;9.294;2024-02-23T05:03:35;97792.63;;;9.43;100.00
18819;BME280;9537;45.594;9.294;2024-02-23T05:04:36;97783.72;;;9.44;100.00
18819;BME280;9537;45.594;9.294;2024-02-23T05:05:38;97788.97;;;9.44;100.00
18819;BME280;9537;45.594;9.294;2024-02-23T05:06:39;97789.97;;;9.43;100.00
18819;BME280;9537;45.594;9.294;2024-02-23T05:07:39;97791.00;;;9.42;100.00
18819;BME280;9537;45.594;9.294;2024-02-23T05:08:41;97795.84;;;9.45;100.00
18819;BME280;9537;45.594;9.294;2024-02-23T05:09:43;97796.66;;;9.46;100.00
18819;BME280;9537;45.594;9.294;2024-02-23T05:10:45;97800.53;;;9.43;100.00
18819;BME280;9537;45.594;9.294;2024-02-23T05:11:46;97796.06;;;9.44;100.00
18819;BME280;9537;45.594;9.294;2024-02-23T05:12:48;97800.31;;;9.45;100.00
18819;BME280;9537;45.594;9.294;2024-02-23T05:13:49;97789.97;;;9.43;100.00
18819;BME280;9537;45.594;9.294;2024-02-23T05:14:50;97793.41;;;9.44;100.00
18819;BME280;9537;45.594;9.294;2024-02-23T05:15:51;97790.78;;;9.44;100.00
18819;BME280;9537;45.594;9.294;2024-02-23T05:16:53;97789.19;;;9.43;100.00
18819;BME280;9537;45.594;9.294;2024-02-23T05:17:54;97785.75;;;9.42;100.00
18819;BME280;9537;45.594;9.294;2024-02-23T05:18:55;97779.44;;;9.43;100.00
18819;BME280;9537;45.594;9.294;2024-02-23T05:19:56;97784.72;;;9.43;100.00
18819;BME280;9537;45.594;9.294;2024-02-23T05:20:57;97782.31;;;9.42;100.00
18819;BME280;9537;45.594;9.294;2024-02-23T05:21:58;97774.41;;;9.42;100.00
18819;BME280;9537;45.594;9.294;2024-02-23T05:22:59;97776.00;;;9.43;100.00
18819;BME280;9537;45.594;9.294;2024-02-23T05:24:01;97769.13;;;9.42;100.00
18819;BME280;9537;45.594;9.294;2024-02-23T05:25:04;97765.47;;;9.43;100.00
18819;BME280;9537;45.594;9.294;2024-02-23T05:26:05;97765.69;;;9.41;100.00
18819;BME280;9537;45.594;9.294;2024-02-23T05:27:07;97768.31;;;9.41;100.00
18819;BME280;9537;45.594;9.294;2024-02-23T05:28:10;97763.84;;;9.42;100.00
18819;BME280;9537;45.594;9.294;2024-02-23T05:29:11;97766.50;;;9.42;100.00
18819;BME280;9537;45.594;9.294;2024-02-23T05:30:13;97762.03;;;9.42;100.00
18819;BME280;9537;45.594;9.294;2024-02-23T05:31:15;97765.69;;;9.41;100.00
18819;BME280;9537;45.594;9.294;2024-02-23T05:32:16;97767.50;;;9.41;100.00